sensor_id;sensor_type;location;lat;lon;timestamp;temperature;humidity
16074;DHT22;8141;52.664;5.074;2023-08-06T00:00:21;24.20;61.30
16074;DHT22;8141;52.664;5.074;2023-08-06T00:02:48;24.10;61.20
16074;DHT22;8141;52.664;5.074;2023-08-06T00:05:14;24.20;61.30
16074;DHT22;8141;52.664;5.074;2023-08-06T00:07:44;24.20;61.40
16074;DHT22;8141;52.664;5.074;2023-08-06T00:10:10;24.20;61.30
16074;DHT22;8141;52.664;5.074;2023-08-06T00:12:36;24.10;61.30
16074;DHT22;8141;52.664;5.074;2023-08-06T00:15:02;24.10;61.30
16074;DHT22;8141;52.664;5.074;2023-08-06T00:17:28;24.10;61.30
16074;DHT22;8141;52.664;5.074;2023-08-06T00:19:54;24.10;61.30
16074;DHT22;8141;52.664;5.074;2023-08-06T00:22:20;24.10;61.30
16074;DHT22;8141;52.664;5.074;2023-08-06T00:24:45;24.20;61.40
16074;DHT22;8141;52.664;5.074;2023-08-06T00:27:11;24.10;61.30
16074;DHT22;8141;52.664;5.074;2023-08-06T00:29:37;24.10;61.30
16074;DHT22;8141;52.664;5.074;2023-08-06T00:32:02;24.10;61.30
16074;DHT22;8141;52.664;5.074;2023-08-06T00:34:28;24.10;61.30
16074;DHT22;8141;52.664;5.074;2023-08-06T00:36:54;24.10;61.30
16074;DHT22;8141;52.664;5.074;2023-08-06T00:39:20;24.10;61.40
16074;DHT22;8141;52.664;5.074;2023-08-06T00:41:46;24.10;61.30
16074;DHT22;8141;52.664;5.074;2023-08-06T00:44:11;24.10;61.30
16074;DHT22;8141;52.664;5.074;2023-08-06T00:46:37;24.10;61.30
16074;DHT22;8141;52.664;5.074;2023-08-06T00:49:04;24.10;61.40
16074;DHT22;8141;52.664;5.074;2023-08-06T00:51:30;24.10;61.30
16074;DHT22;8141;52.664;5.074;2023-08-06T00:53:57;24.10;61.40
16074;DHT22;8141;52.664;5.074;2023-08-06T00:56:24;24.10;61.30
16074;DHT22;8141;52.664;5.074;2023-08-06T00:58:51;24.10;61.40
16074;DHT22;8141;52.664;5.074;2023-08-06T01:01:16;24.10;61.40
16074;DHT22;8141;52.664;5.074;2023-08-06T01:03:42;24.10;61.40
16074;DHT22;8141;52.664;5.074;2023-08-06T01:06:08;24.10;61.40
16074;DHT22;8141;52.664;5.074;2023-08-06T01:11:38;24.10;61.40
16074;DHT22;8141;52.664;5.074;2023-08-06T01:14:27;24.10;61.40
16074;DHT22;8141;52.664;5.074;2023-08-06T01:16:54;24.00;61.40
16074;DHT22;8141;52.664;5.074;2023-08-06T01:19:21;24.00;61.40
16074;DHT22;8141;52.664;5.074;2023-08-06T01:21:47;24.00;61.40
16074;DHT22;8141;52.664;5.074;2023-08-06T01:24:13;24.00;61.30
16074;DHT22;8141;52.664;5.074;2023-08-06T01:27:41;24.00;61.40
16074;DHT22;8141;52.664;5.074;2023-08-06T01:30:02;24.00;61.40
16074;DHT22;8141;52.664;5.074;2023-08-06T01:32:31;24.00;61.40
16074;DHT22;8141;52.664;5.074;2023-08-06T01:34:59;24.00;61.40
16074;DHT22;8141;52.664;5.074;2023-08-06T01:37:26;24.00;61.40
16074;DHT22;8141;52.664;5.074;2023-08-06T01:39:53;24.00;61.40
16074;DHT22;8141;52.664;5.074;2023-08-06T01:42:18;24.00;61.40
16074;DHT22;8141;52.664;5.074;2023-08-06T01:44:44;24.00;61.40
16074;DHT22;8141;52.664;5.074;2023-08-06T01:47:10;24.00;61.40
16074;DHT22;8141;52.664;5.074;2023-08-06T01:49:36;24.00;61.40
16074;DHT22;8141;52.664;5.074;2023-08-06T01:52:01;24.00;61.40
16074;DHT22;8141;52.664;5.074;2023-08-06T01:54:27;24.00;61.40
16074;DHT22;8141;52.664;5.074;2023-08-06T01:56:53;24.00;61.40
16074;DHT22;8141;52.664;5.074;2023-08-06T01:59:19;24.00;61.40
16074;DHT22;8141;52.664;5.074;2023-08-06T02:01:45;24.00;61.40
16074;DHT22;8141;52.664;5.074;2023-08-06T02:04:11;24.00;61.40
16074;DHT22;8141;52.664;5.074;2023-08-06T02:06:37;24.00;61.40
16074;DHT22;8141;52.664;5.074;2023-08-06T02:09:02;24.00;61.40
16074;DHT22;8141;52.664;5.074;2023-08-06T02:11:28;24.00;61.40
16074;DHT22;8141;52.664;5.074;2023-08-06T02:13:54;24.00;61.40
16074;DHT22;8141;52.664;5.074;2023-08-06T02:16:20;24.00;61.40
16074;DHT22;8141;52.664;5.074;2023-08-06T02:18:45;24.00;61.40
16074;DHT22;8141;52.664;5.074;2023-08-06T02:21:11;24.00;61.40
16074;DHT22;8141;52.664;5.074;2023-08-06T02:23:37;24.00;61.40
16074;DHT22;8141;52.664;5.074;2023-08-06T02:26:03;24.00;61.40
16074;DHT22;8141;52.664;5.074;2023-08-06T02:28:30;24.00;61.40
16074;DHT22;8141;52.664;5.074;2023-08-06T02:30:56;24.00;61.40
16074;DHT22;8141;52.664;5.074;2023-08-06T02:33:22;24.00;61.40
16074;DHT22;8141;52.664;5.074;2023-08-06T02:35:48;24.00;61.40
16074;DHT22;8141;52.664;5.074;2023-08-06T02:38:14;24.00;61.40
16074;DHT22;8141;52.664;5.074;2023-08-06T02:40:46;24.00;61.40
16074;DHT22;8141;52.664;5.074;2023-08-06T02:43:15;24.00;61.40
16074;DHT22;8141;52.664;5.074;2023-08-06T02:45:41;24.00;61.40
16074;DHT22;8141;52.664;5.074;2023-08-06T02:48:06;24.00;61.40
16074;DHT22;8141;52.664;5.074;2023-08-06T02:50:38;24.00;61.40
16074;DHT22;8141;52.664;5.074;2023-08-06T02:53:05;24.00;61.40
16074;DHT22;8141;52.664;5.074;2023-08-06T02:55:32;24.00;61.40
16074;DHT22;8141;52.664;5.074;2023-08-06T02:57:59;24.00;61.40
16074;DHT22;8141;52.664;5.074;2023-08-06T03:00:28;24.00;61.40
16074;DHT22;8141;52.664;5.074;2023-08-06T03:02:53;24.00;61.40
16074;DHT22;8141;52.664;5.074;2023-08-06T03:05:19;24.00;61.40
16074;DHT22;8141;52.664;5.074;2023-08-06T03:07:45;24.00;61.40
16074;DHT22;8141;52.664;5.074;2023-08-06T03:10:11;24.00;61.40
16074;DHT22;8141;52.664;5.074;2023-08-06T03:12:36;24.00;61.40
16074;DHT22;8141;52.664;5.074;2023-08-06T03:15:02;24.00;61.50
16074;DHT22;8141;52.664;5.074;2023-08-06T03:17:28;24.00;61.40
16074;DHT22;8141;52.664;5.074;2023-08-06T03:19:54;24.00;61.40
16074;DHT22;8141;52.664;5.074;2023-08-06T03:22:20;24.00;61.40
16074;DHT22;8141;52.664;5.074;2023-08-06T03:24:45;24.00;61.40
16074;DHT22;8141;52.664;5.074;2023-08-06T03:27:11;24.00;61.40
16074;DHT22;8141;52.664;5.074;2023-08-06T03:29:37;24.00;62.10
16074;DHT22;8141;52.664;5.074;2023-08-06T03:32:02;24.00;61.40
16074;DHT22;8141;52.664;5.074;2023-08-06T03:34:28;24.00;61.40
16074;DHT22;8141;52.664;5.074;2023-08-06T03:36:54;24.00;61.40
16074;DHT22;8141;52.664;5.074;2023-08-06T03:39:20;24.00;61.40
16074;DHT22;8141;52.664;5.074;2023-08-06T03:41:45;24.00;61.50
16074;DHT22;8141;52.664;5.074;2023-08-06T03:44:11;24.00;61.40
16074;DHT22;8141;52.664;5.074;2023-08-06T03:46:37;24.00;61.50
16074;DHT22;8141;52.664;5.074;2023-08-06T03:49:03;24.00;61.40
16074;DHT22;8141;52.664;5.074;2023-08-06T03:51:28;24.00;61.40
16074;DHT22;8141;52.664;5.074;2023-08-06T03:53:54;24.00;61.40
16074;DHT22;8141;52.664;5.074;2023-08-06T03:56:20;24.00;61.40
16074;DHT22;8141;52.664;5.074;2023-08-06T03:58:45;24.00;61.40
16074;DHT22;8141;52.664;5.074;2023-08-06T04:01:11;23.90;61.40
16074;DHT22;8141;52.664;5.074;2023-08-06T04:03:37;24.00;61.50
16074;DHT22;8141;52.664;5.074;2023-08-06T04:06:03;23.90;61.40
16074;DHT22;8141;52.664;5.074;2023-08-06T04:08:28;24.00;61.50
16074;DHT22;8141;52.664;5.074;2023-08-06T04:10:54;23.90;61.40
16074;DHT22;8141;52.664;5.074;2023-08-06T04:13:20;23.90;61.40
16074;DHT22;8141;52.664;5.074;2023-08-06T04:15:46;24.00;61.50
16074;DHT22;8141;52.664;5.074;2023-08-06T04:18:12;23.90;61.40
16074;DHT22;8141;52.664;5.074;2023-08-06T04:20:47;23.90;61.50
16074;DHT22;8141;52.664;5.074;2023-08-06T04:23:15;23.90;61.40
16074;DHT22;8141;52.664;5.074;2023-08-06T04:25:40;23.90;61.50
16074;DHT22;8141;52.664;5.074;2023-08-06T04:28:07;23.90;61.40
16074;DHT22;8141;52.664;5.074;2023-08-06T04:30:33;23.90;61.50
16074;DHT22;8141;52.664;5.074;2023-08-06T04:32:59;24.00;61.50
16074;DHT22;8141;52.664;5.074;2023-08-06T04:35:25;23.90;61.50
16074;DHT22;8141;52.664;5.074;2023-08-06T04:37:50;23.90;61.40
16074;DHT22;8141;52.664;5.074;2023-08-06T04:40:16;24.00;61.50
16074;DHT22;8141;52.664;5.074;2023-08-06T04:42:42;23.90;61.50
16074;DHT22;8141;52.664;5.074;2023-08-06T04:45:08;23.90;61.50
16074;DHT22;8141;52.664;5.074;2023-08-06T04:47:34;23.90;61.40
16074;DHT22;8141;52.664;5.074;2023-08-06T04:50:00;23.90;61.40
16074;DHT22;8141;52.664;5.074;2023-08-06T04:52:25;23.90;61.50
16074;DHT22;8141;52.664;5.074;2023-08-06T04:54:54;23.90;61.50
16074;DHT22;8141;52.664;5.074;2023-08-06T04:57:20;23.90;61.50
16074;DHT22;8141;52.664;5.074;2023-08-06T04:59:46;23.90;61.50
16074;DHT22;8141;52.664;5.074;2023-08-06T05:02:12;23.90;61.50
16074;DHT22;8141;52.664;5.074;2023-08-06T05:04:38;23.90;61.50
16074;DHT22;8141;52.664;5.074;2023-08-06T05:07:05;23.90;61.50
16074;DHT22;8141;52.664;5.074;2023-08-06T05:09:31;23.90;61.50
16074;DHT22;8141;52.664;5.074;2023-08-06T05:11:56;23.90;61.50
16074;DHT22;8141;52.664;5.074;2023-08-06T05:14:22;23.90;61.50
16074;DHT22;8141;52.664;5.074;2023-08-06T05:16:48;23.90;61.50
16074;DHT22;8141;52.664;5.074;2023-08-06T05:19:13;23.90;61.50
16074;DHT22;8141;52.664;5.074;2023-08-06T05:21:39;23.90;61.50
16074;DHT22;8141;52.664;5.074;2023-08-06T05:24:05;23.90;61.50
16074;DHT22;8141;52.664;5.074;2023-08-06T05:26:31;23.90;61.50
16074;DHT22;8141;52.664;5.074;2023-08-06T05:28:56;23.90;61.50
16074;DHT22;8141;52.664;5.074;2023-08-06T05:31:22;23.90;61.50
16074;DHT22;8141;52.664;5.074;2023-08-06T05:33:48;23.90;61.50
16074;DHT22;8141;52.664;5.074;2023-08-06T05:36:13;23.90;61.50
16074;DHT22;8141;52.664;5.074;2023-08-06T05:38:39;23.90;61.50
16074;DHT22;8141;52.664;5.074;2023-08-06T05:41:05;23.90;61.50
16074;DHT22;8141;52.664;5.074;2023-08-06T05:43:30;23.90;61.50
16074;DHT22;8141;52.664;5.074;2023-08-06T05:45:56;23.90;61.50
16074;DHT22;8141;52.664;5.074;2023-08-06T05:48:22;23.90;61.50
16074;DHT22;8141;52.664;5.074;2023-08-06T05:50:51;23.90;61.50
16074;DHT22;8141;52.664;5.074;2023-08-06T05:53:17;23.90;61.50
16074;DHT22;8141;52.664;5.074;2023-08-06T05:55:43;23.90;61.50
16074;DHT22;8141;52.664;5.074;2023-08-06T05:58:08;23.90;61.60
16074;DHT22;8141;52.664;5.074;2023-08-06T06:00:34;23.90;61.50
16074;DHT22;8141;52.664;5.074;2023-08-06T06:03:00;23.90;61.60
16074;DHT22;8141;52.664;5.074;2023-08-06T06:05:27;23.90;61.50
16074;DHT22;8141;52.664;5.074;2023-08-06T06:07:52;23.90;61.50
16074;DHT22;8141;52.664;5.074;2023-08-06T06:10:18;23.90;61.60
16074;DHT22;8141;52.664;5.074;2023-08-06T06:12:44;23.90;61.50
16074;DHT22;8141;52.664;5.074;2023-08-06T06:15:10;23.90;61.50
16074;DHT22;8141;52.664;5.074;2023-08-06T06:17:35;23.90;61.60
16074;DHT22;8141;52.664;5.074;2023-08-06T06:20:01;23.90;61.60
16074;DHT22;8141;52.664;5.074;2023-08-06T06:22:29;23.90;61.50
16074;DHT22;8141;52.664;5.074;2023-08-06T06:24:55;23.90;61.50
16074;DHT22;8141;52.664;5.074;2023-08-06T06:27:21;23.90;61.50
16074;DHT22;8141;52.664;5.074;2023-08-06T06:29:47;23.90;61.60
16074;DHT22;8141;52.664;5.074;2023-08-06T06:32:12;23.90;61.50
16074;DHT22;8141;52.664;5.074;2023-08-06T06:34:38;23.90;61.60
16074;DHT22;8141;52.664;5.074;2023-08-06T06:37:04;23.90;61.50
16074;DHT22;8141;52.664;5.074;2023-08-06T06:39:30;23.90;61.50
16074;DHT22;8141;52.664;5.074;2023-08-06T06:41:56;23.90;61.60
16074;DHT22;8141;52.664;5.074;2023-08-06T06:44:21;23.90;61.50
16074;DHT22;8141;52.664;5.074;2023-08-06T06:46:47;23.90;61.50
16074;DHT22;8141;52.664;5.074;2023-08-06T06:49:13;23.90;61.50
16074;DHT22;8141;52.664;5.074;2023-08-06T06:51:39;23.90;61.50
16074;DHT22;8141;52.664;5.074;2023-08-06T06:54:04;23.90;61.50
16074;DHT22;8141;52.664;5.074;2023-08-06T06:56:30;23.90;61.60
16074;DHT22;8141;52.664;5.074;2023-08-06T06:58:56;23.90;61.60
16074;DHT22;8141;52.664;5.074;2023-08-06T07:01:22;23.90;61.50
16074;DHT22;8141;52.664;5.074;2023-08-06T07:03:47;23.90;61.60
16074;DHT22;8141;52.664;5.074;2023-08-06T07:06:13;23.90;61.50
16074;DHT22;8141;52.664;5.074;2023-08-06T07:08:41;23.90;61.50
16074;DHT22;8141;52.664;5.074;2023-08-06T07:11:07;23.90;61.50
16074;DHT22;8141;52.664;5.074;2023-08-06T07:13:34;23.90;61.60
16074;DHT22;8141;52.664;5.074;2023-08-06T07:16:00;23.90;61.60
16074;DHT22;8141;52.664;5.074;2023-08-06T07:18:25;23.90;61.60
16074;DHT22;8141;52.664;5.074;2023-08-06T07:20:52;23.90;61.60
16074;DHT22;8141;52.664;5.074;2023-08-06T07:23:23;23.90;61.60
16074;DHT22;8141;52.664;5.074;2023-08-06T07:25:50;23.90;61.60
16074;DHT22;8141;52.664;5.074;2023-08-06T07:28:16;23.90;61.60
16074;DHT22;8141;52.664;5.074;2023-08-06T07:30:43;23.90;61.60
16074;DHT22;8141;52.664;5.074;2023-08-06T07:33:09;23.90;61.60
16074;DHT22;8141;52.664;5.074;2023-08-06T07:35:35;23.90;61.60
16074;DHT22;8141;52.664;5.074;2023-08-06T07:38:01;23.90;61.60
16074;DHT22;8141;52.664;5.074;2023-08-06T07:40:28;23.90;61.60
16074;DHT22;8141;52.664;5.074;2023-08-06T07:42:54;23.90;61.60
16074;DHT22;8141;52.664;5.074;2023-08-06T07:45:20;23.90;61.60
16074;DHT22;8141;52.664;5.074;2023-08-06T07:47:46;23.90;61.60
16074;DHT22;8141;52.664;5.074;2023-08-06T07:50:12;23.90;61.60
16074;DHT22;8141;52.664;5.074;2023-08-06T07:52:39;23.90;61.60
16074;DHT22;8141;52.664;5.074;2023-08-06T07:55:04;23.90;61.60
16074;DHT22;8141;52.664;5.074;2023-08-06T07:57:34;23.90;61.60
16074;DHT22;8141;52.664;5.074;2023-08-06T08:00:00;23.90;61.60
16074;DHT22;8141;52.664;5.074;2023-08-06T08:02:26;23.90;61.60
16074;DHT22;8141;52.664;5.074;2023-08-06T08:04:52;23.90;61.60
16074;DHT22;8141;52.664;5.074;2023-08-06T08:07:18;23.90;61.60
16074;DHT22;8141;52.664;5.074;2023-08-06T08:09:44;23.90;61.50
16074;DHT22;8141;52.664;5.074;2023-08-06T08:12:10;23.90;61.60
16074;DHT22;8141;52.664;5.074;2023-08-06T08:14:36;23.90;61.50
16074;DHT22;8141;52.664;5.074;2023-08-06T08:17:05;23.90;61.60
16074;DHT22;8141;52.664;5.074;2023-08-06T08:19:32;23.90;61.50
16074;DHT22;8141;52.664;5.074;2023-08-06T08:21:58;23.90;61.50
16074;DHT22;8141;52.664;5.074;2023-08-06T08:24:24;23.90;61.60
16074;DHT22;8141;52.664;5.074;2023-08-06T08:26:53;23.90;61.60
16074;DHT22;8141;52.664;5.074;2023-08-06T08:29:22;23.90;61.50
16074;DHT22;8141;52.664;5.074;2023-08-06T08:31:48;23.90;61.50
16074;DHT22;8141;52.664;5.074;2023-08-06T08:34:17;23.90;61.50
16074;DHT22;8141;52.664;5.074;2023-08-06T08:36:43;23.90;61.60
16074;DHT22;8141;52.664;5.074;2023-08-06T08:39:12;23.90;61.50
16074;DHT22;8141;52.664;5.074;2023-08-06T08:41:39;23.90;61.50
16074;DHT22;8141;52.664;5.074;2023-08-06T08:44:09;23.90;61.50
16074;DHT22;8141;52.664;5.074;2023-08-06T08:46:37;23.90;61.50
16074;DHT22;8141;52.664;5.074;2023-08-06T08:49:04;23.90;61.50
16074;DHT22;8141;52.664;5.074;2023-08-06T08:51:30;23.90;61.50
16074;DHT22;8141;52.664;5.074;2023-08-06T08:53:57;23.90;61.50
16074;DHT22;8141;52.664;5.074;2023-08-06T08:56:23;23.90;61.50
16074;DHT22;8141;52.664;5.074;2023-08-06T08:58:50;23.90;61.50
16074;DHT22;8141;52.664;5.074;2023-08-06T09:01:18;23.90;61.60
16074;DHT22;8141;52.664;5.074;2023-08-06T09:03:45;23.90;61.50
16074;DHT22;8141;52.664;5.074;2023-08-06T09:06:12;23.90;61.50
16074;DHT22;8141;52.664;5.074;2023-08-06T09:08:49;23.90;61.50
16074;DHT22;8141;52.664;5.074;2023-08-06T09:11:17;23.90;61.50
16074;DHT22;8141;52.664;5.074;2023-08-06T09:13:44;23.90;61.50
16074;DHT22;8141;52.664;5.074;2023-08-06T09:16:11;23.90;61.50
16074;DHT22;8141;52.664;5.074;2023-08-06T09:18:39;23.90;61.50
16074;DHT22;8141;52.664;5.074;2023-08-06T09:21:05;23.90;61.60
16074;DHT22;8141;52.664;5.074;2023-08-06T09:23:31;23.90;61.50
16074;DHT22;8141;52.664;5.074;2023-08-06T09:25:59;23.90;61.50
16074;DHT22;8141;52.664;5.074;2023-08-06T09:28:36;23.90;61.50
16074;DHT22;8141;52.664;5.074;2023-08-06T09:31:04;23.90;61.50
16074;DHT22;8141;52.664;5.074;2023-08-06T09:33:30;23.90;61.50
16074;DHT22;8141;52.664;5.074;2023-08-06T09:35:55;23.90;61.50
16074;DHT22;8141;52.664;5.074;2023-08-06T09:38:21;23.90;61.50
16074;DHT22;8141;52.664;5.074;2023-08-06T09:40:47;23.90;61.50
16074;DHT22;8141;52.664;5.074;2023-08-06T09:43:12;23.90;61.50
16074;DHT22;8141;52.664;5.074;2023-08-06T09:45:39;23.90;61.50
16074;DHT22;8141;52.664;5.074;2023-08-06T09:48:06;23.90;61.50
16074;DHT22;8141;52.664;5.074;2023-08-06T09:50:35;23.90;61.50
16074;DHT22;8141;52.664;5.074;2023-08-06T09:53:03;23.90;61.50
16074;DHT22;8141;52.664;5.074;2023-08-06T09:55:30;23.90;61.50
16074;DHT22;8141;52.664;5.074;2023-08-06T09:57:56;23.90;61.50
16074;DHT22;8141;52.664;5.074;2023-08-06T10:00:22;23.90;61.50
16074;DHT22;8141;52.664;5.074;2023-08-06T10:02:49;23.90;61.50
16074;DHT22;8141;52.664;5.074;2023-08-06T10:05:17;24.00;61.60
16074;DHT22;8141;52.664;5.074;2023-08-06T10:07:44;23.90;61.60
16074;DHT22;8141;52.664;5.074;2023-08-06T10:10:10;24.00;61.60
16074;DHT22;8141;52.664;5.074;2023-08-06T10:12:39;23.90;61.60
16074;DHT22;8141;52.664;5.074;2023-08-06T10:15:10;23.90;61.50
16074;DHT22;8141;52.664;5.074;2023-08-06T10:17:43;24.00;61.60
16074;DHT22;8141;52.664;5.074;2023-08-06T10:20:10;24.00;61.60
16074;DHT22;8141;52.664;5.074;2023-08-06T10:22:36;23.90;61.50
16074;DHT22;8141;52.664;5.074;2023-08-06T10:25:02;23.90;61.50
16074;DHT22;8141;52.664;5.074;2023-08-06T10:27:52;23.90;61.50
16074;DHT22;8141;52.664;5.074;2023-08-06T10:30:23;24.00;61.60
16074;DHT22;8141;52.664;5.074;2023-08-06T10:32:54;24.00;61.50
16074;DHT22;8141;52.664;5.074;2023-08-06T10:41:03;24.00;61.60
16074;DHT22;8141;52.664;5.074;2023-08-06T10:43:33;23.90;61.50
16074;DHT22;8141;52.664;5.074;2023-08-06T10:46:01;23.90;61.50
16074;DHT22;8141;52.664;5.074;2023-08-06T10:48:32;23.90;61.50
16074;DHT22;8141;52.664;5.074;2023-08-06T10:51:00;24.00;61.50
16074;DHT22;8141;52.664;5.074;2023-08-06T10:53:27;24.00;61.50
16074;DHT22;8141;52.664;5.074;2023-08-06T10:55:52;23.90;61.50
16074;DHT22;8141;52.664;5.074;2023-08-06T10:58:18;23.90;61.50
16074;DHT22;8141;52.664;5.074;2023-08-06T11:00:44;24.00;61.60
16074;DHT22;8141;52.664;5.074;2023-08-06T11:03:11;23.90;61.50
16074;DHT22;8141;52.664;5.074;2023-08-06T11:05:37;24.00;61.50
16074;DHT22;8141;52.664;5.074;2023-08-06T11:08:02;24.00;61.50
16074;DHT22;8141;52.664;5.074;2023-08-06T11:10:28;24.00;61.50
16074;DHT22;8141;52.664;5.074;2023-08-06T11:12:54;24.00;61.50
16074;DHT22;8141;52.664;5.074;2023-08-06T11:15:23;24.00;61.50
16074;DHT22;8141;52.664;5.074;2023-08-06T11:17:50;24.00;61.50
16074;DHT22;8141;52.664;5.074;2023-08-06T11:20:15;24.00;61.50
16074;DHT22;8141;52.664;5.074;2023-08-06T11:22:41;24.00;61.50
16074;DHT22;8141;52.664;5.074;2023-08-06T11:25:07;23.90;61.40
16074;DHT22;8141;52.664;5.074;2023-08-06T11:27:33;24.00;61.40
16074;DHT22;8141;52.664;5.074;2023-08-06T11:30:00;24.00;61.40
16074;DHT22;8141;52.664;5.074;2023-08-06T11:32:26;24.00;61.40
16074;DHT22;8141;52.664;5.074;2023-08-06T11:34:53;24.00;61.40
16074;DHT22;8141;52.664;5.074;2023-08-06T11:37:23;24.00;61.40
16074;DHT22;8141;52.664;5.074;2023-08-06T11:39:50;24.00;61.40
16074;DHT22;8141;52.664;5.074;2023-08-06T11:42:16;24.00;61.50
16074;DHT22;8141;52.664;5.074;2023-08-06T11:44:42;24.00;61.40
16074;DHT22;8141;52.664;5.074;2023-08-06T11:47:12;24.00;61.40
16074;DHT22;8141;52.664;5.074;2023-08-06T11:49:46;24.00;61.50
16074;DHT22;8141;52.664;5.074;2023-08-06T11:52:15;24.00;61.50
16074;DHT22;8141;52.664;5.074;2023-08-06T11:55:09;24.00;61.50
16074;DHT22;8141;52.664;5.074;2023-08-06T11:57:43;24.00;61.40
16074;DHT22;8141;52.664;5.074;2023-08-06T12:00:14;24.00;61.40
16074;DHT22;8141;52.664;5.074;2023-08-06T12:02:40;24.00;61.40
16074;DHT22;8141;52.664;5.074;2023-08-06T12:05:15;24.00;61.40
16074;DHT22;8141;52.664;5.074;2023-08-06T12:07:43;24.00;61.40
16074;DHT22;8141;52.664;5.074;2023-08-06T12:10:11;24.00;61.40
16074;DHT22;8141;52.664;5.074;2023-08-06T12:12:37;24.00;61.40
16074;DHT22;8141;52.664;5.074;2023-08-06T12:15:04;24.00;61.40
16074;DHT22;8141;52.664;5.074;2023-08-06T12:17:34;24.00;61.80
16074;DHT22;8141;52.664;5.074;2023-08-06T12:20:00;24.00;61.40
16074;DHT22;8141;52.664;5.074;2023-08-06T12:22:26;24.00;61.40
16074;DHT22;8141;52.664;5.074;2023-08-06T12:24:52;24.00;61.40
16074;DHT22;8141;52.664;5.074;2023-08-06T12:27:18;24.00;61.40
16074;DHT22;8141;52.664;5.074;2023-08-06T12:29:46;24.00;61.40
16074;DHT22;8141;52.664;5.074;2023-08-06T12:32:13;24.00;61.40
16074;DHT22;8141;52.664;5.074;2023-08-06T12:34:43;24.00;61.40
16074;DHT22;8141;52.664;5.074;2023-08-06T12:37:09;24.00;61.40
16074;DHT22;8141;52.664;5.074;2023-08-06T12:39:36;24.00;61.40
16074;DHT22;8141;52.664;5.074;2023-08-06T12:42:03;24.00;61.40
16074;DHT22;8141;52.664;5.074;2023-08-06T12:44:30;24.00;61.40
16074;DHT22;8141;52.664;5.074;2023-08-06T12:46:57;24.00;61.40
16074;DHT22;8141;52.664;5.074;2023-08-06T12:49:23;24.00;61.30
16074;DHT22;8141;52.664;5.074;2023-08-06T12:51:50;24.00;61.30
16074;DHT22;8141;52.664;5.074;2023-08-06T12:54:22;24.00;61.30
16074;DHT22;8141;52.664;5.074;2023-08-06T12:56:48;24.00;61.30
16074;DHT22;8141;52.664;5.074;2023-08-06T12:59:15;24.00;61.30
16074;DHT22;8141;52.664;5.074;2023-08-06T13:01:42;24.00;61.30
16074;DHT22;8141;52.664;5.074;2023-08-06T13:04:08;24.00;61.40
16074;DHT22;8141;52.664;5.074;2023-08-06T13:06:35;24.00;61.30
16074;DHT22;8141;52.664;5.074;2023-08-06T13:11:31;24.00;61.30
16074;DHT22;8141;52.664;5.074;2023-08-06T13:14:09;24.00;61.30
16074;DHT22;8141;52.664;5.074;2023-08-06T13:16:37;24.00;61.30
16074;DHT22;8141;52.664;5.074;2023-08-06T13:19:05;24.00;61.30
16074;DHT22;8141;52.664;5.074;2023-08-06T13:21:59;24.00;61.30
16074;DHT22;8141;52.664;5.074;2023-08-06T13:24:25;24.00;61.30
16074;DHT22;8141;52.664;5.074;2023-08-06T13:26:51;24.00;61.30
16074;DHT22;8141;52.664;5.074;2023-08-06T13:29:16;24.00;61.30
16074;DHT22;8141;52.664;5.074;2023-08-06T13:31:42;24.00;61.20
16074;DHT22;8141;52.664;5.074;2023-08-06T13:34:08;24.00;61.30
16074;DHT22;8141;52.664;5.074;2023-08-06T13:36:34;24.00;61.30
16074;DHT22;8141;52.664;5.074;2023-08-06T13:39:00;24.00;61.20
16074;DHT22;8141;52.664;5.074;2023-08-06T13:41:25;24.10;61.30
16074;DHT22;8141;52.664;5.074;2023-08-06T13:43:51;24.00;61.20
16074;DHT22;8141;52.664;5.074;2023-08-06T13:46:18;24.10;61.30
16074;DHT22;8141;52.664;5.074;2023-08-06T13:48:46;24.10;61.30
16074;DHT22;8141;52.664;5.074;2023-08-06T13:51:13;24.00;61.20
16074;DHT22;8141;52.664;5.074;2023-08-06T13:53:39;24.00;61.20
16074;DHT22;8141;52.664;5.074;2023-08-06T13:56:06;24.00;61.20
16074;DHT22;8141;52.664;5.074;2023-08-06T13:58:33;24.00;61.20
16074;DHT22;8141;52.664;5.074;2023-08-06T14:00:59;24.00;61.20
16074;DHT22;8141;52.664;5.074;2023-08-06T14:03:25;24.10;61.20
16074;DHT22;8141;52.664;5.074;2023-08-06T14:05:50;24.00;61.20
16074;DHT22;8141;52.664;5.074;2023-08-06T14:08:17;24.00;61.20
16074;DHT22;8141;52.664;5.074;2023-08-06T14:10:45;24.10;61.20
16074;DHT22;8141;52.664;5.074;2023-08-06T14:13:11;24.00;61.20
16074;DHT22;8141;52.664;5.074;2023-08-06T14:15:37;24.10;61.20
16074;DHT22;8141;52.664;5.074;2023-08-06T14:18:06;24.10;61.20
16074;DHT22;8141;52.664;5.074;2023-08-06T14:20:34;24.00;61.20
16074;DHT22;8141;52.664;5.074;2023-08-06T14:23:00;24.10;61.20
16074;DHT22;8141;52.664;5.074;2023-08-06T14:25:25;24.00;61.20
16074;DHT22;8141;52.664;5.074;2023-08-06T14:27:51;24.00;61.80
16074;DHT22;8141;52.664;5.074;2023-08-06T14:30:17;24.00;61.20
16074;DHT22;8141;52.664;5.074;2023-08-06T14:32:42;24.10;61.20
16074;DHT22;8141;52.664;5.074;2023-08-06T14:35:08;24.00;61.20
16074;DHT22;8141;52.664;5.074;2023-08-06T14:37:34;24.10;61.20
16074;DHT22;8141;52.664;5.074;2023-08-06T14:40:00;24.00;61.10
16074;DHT22;8141;52.664;5.074;2023-08-06T14:42:26;24.00;61.20
16074;DHT22;8141;52.664;5.074;2023-08-06T14:44:52;24.10;61.20
16074;DHT22;8141;52.664;5.074;2023-08-06T14:47:17;24.10;61.20
16074;DHT22;8141;52.664;5.074;2023-08-06T14:49:43;24.00;61.20
16074;DHT22;8141;52.664;5.074;2023-08-06T14:52:10;24.00;61.10
16074;DHT22;8141;52.664;5.074;2023-08-06T14:54:35;24.10;61.20
16074;DHT22;8141;52.664;5.074;2023-08-06T14:57:01;24.00;61.10
16074;DHT22;8141;52.664;5.074;2023-08-06T14:59:27;24.00;61.10
16074;DHT22;8141;52.664;5.074;2023-08-06T15:01:53;24.10;61.20
16074;DHT22;8141;52.664;5.074;2023-08-06T15:04:18;24.10;61.20
16074;DHT22;8141;52.664;5.074;2023-08-06T15:06:44;24.00;61.10
16074;DHT22;8141;52.664;5.074;2023-08-06T15:09:11;24.00;61.10
16074;DHT22;8141;52.664;5.074;2023-08-06T15:11:37;24.10;61.10
16074;DHT22;8141;52.664;5.074;2023-08-06T15:14:02;24.00;61.10
16074;DHT22;8141;52.664;5.074;2023-08-06T15:16:30;24.10;61.10
16074;DHT22;8141;52.664;5.074;2023-08-06T15:18:56;24.10;61.10
16074;DHT22;8141;52.664;5.074;2023-08-06T15:21:22;24.10;61.10
16074;DHT22;8141;52.664;5.074;2023-08-06T15:23:47;24.10;61.10
16074;DHT22;8141;52.664;5.074;2023-08-06T15:26:13;24.10;61.10
16074;DHT22;8141;52.664;5.074;2023-08-06T15:28:39;24.00;61.00
16074;DHT22;8141;52.664;5.074;2023-08-06T15:31:05;24.10;61.00
16074;DHT22;8141;52.664;5.074;2023-08-06T15:33:33;24.10;61.00
16074;DHT22;8141;52.664;5.074;2023-08-06T15:35:59;24.10;61.10
16074;DHT22;8141;52.664;5.074;2023-08-06T15:38:25;24.10;61.10
16074;DHT22;8141;52.664;5.074;2023-08-06T15:40:51;24.10;61.10
16074;DHT22;8141;52.664;5.074;2023-08-06T15:43:16;24.10;61.00
16074;DHT22;8141;52.664;5.074;2023-08-06T15:45:42;24.10;61.00
16074;DHT22;8141;52.664;5.074;2023-08-06T15:48:08;24.10;61.00
16074;DHT22;8141;52.664;5.074;2023-08-06T15:50:37;24.10;61.10
16074;DHT22;8141;52.664;5.074;2023-08-06T15:53:04;24.10;61.00